sensor_id;sensor_type;location;lat;lon;timestamp;pressure;altitude;pressure_sealevel;temperature;humidity
68859;BME280;55864;49.238;8.092;2023-04-10T00:01:36;100033.63;;;8.54;60.09
68859;BME280;55864;49.238;8.092;2023-04-10T00:03:36;100033.31;;;8.59;59.94
68859;BME280;55864;49.238;8.092;2023-04-10T00:05:37;100030.09;;;8.66;59.13
68859;BME280;55864;49.238;8.092;2023-04-10T00:07:37;100031.53;;;8.70;58.89
68859;BME280;55864;49.238;8.092;2023-04-10T00:09:38;100031.19;;;8.75;57.68
68859;BME280;55864;49.238;8.092;2023-04-10T00:11:38;100020.13;;;8.82;58.31
68859;BME280;55864;49.238;8.092;2023-04-10T00:13:40;100027.63;;;8.87;57.98
68859;BME280;55864;49.238;8.092;2023-04-10T00:15:41;100025.84;;;8.87;58.11
68859;BME280;55864;49.238;8.092;2023-04-10T00:17:41;100024.88;;;8.88;57.71
68859;BME280;55864;49.238;8.092;2023-04-10T00:19:42;100025.94;;;8.86;58.47
68859;BME280;55864;49.238;8.092;2023-04-10T00:21:43;100018.00;;;8.87;57.09
68859;BME280;55864;49.238;8.092;2023-04-10T00:23:43;100014.88;;;8.93;57.70
68859;BME280;55864;49.238;8.092;2023-04-10T00:25:44;100013.09;;;8.94;57.99
68859;BME280;55864;49.238;8.092;2023-04-10T00:27:46;100006.81;;;8.96;58.22
68859;BME280;55864;49.238;8.092;2023-04-10T00:29:48;100012.50;;;9.01;57.45
68859;BME280;55864;49.238;8.092;2023-04-10T00:31:48;100006.09;;;9.05;57.44
68859;BME280;55864;49.238;8.092;2023-04-10T00:33:49;100014.31;;;9.01;56.71
68859;BME280;55864;49.238;8.092;2023-04-10T00:35:50;100006.81;;;8.96;58.10
68859;BME280;55864;49.238;8.092;2023-04-10T00:37:50;99999.28;;;8.92;58.01
68859;BME280;55864;49.238;8.092;2023-04-10T00:39:51;100011.78;;;8.88;58.95
68859;BME280;55864;49.238;8.092;2023-04-10T00:41:51;100004.53;;;8.81;59.33
68859;BME280;55864;49.238;8.092;2023-04-10T00:43:54;100007.72;;;8.84;58.95
68859;BME280;55864;49.238;8.092;2023-04-10T00:45:56;100012.16;;;8.84;58.97
68859;BME280;55864;49.238;8.092;2023-04-10T00:47:56;100007.72;;;8.84;59.04
68859;BME280;55864;49.238;8.092;2023-04-10T00:49:58;99998.22;;;8.83;58.92
68859;BME280;55864;49.238;8.092;2023-04-10T00:51:59;100009.41;;;8.85;59.12
68859;BME280;55864;49.238;8.092;2023-04-10T00:54:00;100005.97;;;8.85;58.07
68859;BME280;55864;49.238;8.092;2023-04-10T00:56:01;100003.34;;;8.85;58.42
68859;BME280;55864;49.238;8.092;2023-04-10T00:58:01;100005.25;;;8.83;58.24
68859;BME280;55864;49.238;8.092;2023-04-10T01:00:02;100010.81;;;8.78;58.57
68859;BME280;55864;49.238;8.092;2023-04-10T01:02:04;100015.47;;;8.75;59.49
68859;BME280;55864;49.238;8.092;2023-04-10T01:04:05;100010.94;;;8.66;59.61
68859;BME280;55864;49.238;8.092;2023-04-10T01:06:13;100017.34;;;8.73;60.26
68859;BME280;55864;49.238;8.092;2023-04-10T01:08:22;100024.28;;;8.74;58.62
68859;BME280;55864;49.238;8.092;2023-04-10T01:10:32;100023.31;;;8.75;58.74
68859;BME280;55864;49.238;8.092;2023-04-10T01:12:49;100022.25;;;8.77;59.03
68859;BME280;55864;49.238;8.092;2023-04-10T01:15:05;100025.00;;;8.87;58.39
68859;BME280;55864;49.238;8.092;2023-04-10T01:17:12;100015.25;;;8.89;58.00
68859;BME280;55864;49.238;8.092;2023-04-10T01:19:24;100022.88;;;8.92;58.28
68859;BME280;55864;49.238;8.092;2023-04-10T01:21:27;100020.97;;;8.94;58.21
68859;BME280;55864;49.238;8.092;2023-04-10T01:23:42;100025.63;;;9.01;58.54
68859;BME280;55864;49.238;8.092;2023-04-10T01:25:53;100022.06;;;9.02;57.63
68859;BME280;55864;49.238;8.092;2023-04-10T01:28:06;100034.78;;;8.96;57.81
68859;BME280;55864;49.238;8.092;2023-04-10T01:30:14;100030.59;;;8.93;57.68
68859;BME280;55864;49.238;8.092;2023-04-10T01:32:19;100028.09;;;8.92;58.78
68859;BME280;55864;49.238;8.092;2023-04-10T01:34:23;100020.97;;;8.94;57.79
68859;BME280;55864;49.238;8.092;2023-04-10T01:36:28;100017.50;;;8.93;57.90
68859;BME280;55864;49.238;8.092;2023-04-10T01:38:32;100013.09;;;8.94;58.10
68859;BME280;55864;49.238;8.092;2023-04-10T01:40:34;100008.94;;;8.91;57.79
68859;BME280;55864;49.238;8.092;2023-04-10T01:42:39;100003.72;;;8.91;58.02
68859;BME280;55864;49.238;8.092;2023-04-10T01:44:43;100009.63;;;8.93;57.97
68859;BME280;55864;49.238;8.092;2023-04-10T01:46:48;100005.38;;;8.92;58.84
68859;BME280;55864;49.238;8.092;2023-04-10T01:48:50;100010.47;;;8.94;58.50
68859;BME280;55864;49.238;8.092;2023-04-10T01:50:53;100000.38;;;8.89;59.14
68859;BME280;55864;49.238;8.092;2023-04-10T01:52:55;100001.91;;;8.92;58.74
68859;BME280;55864;49.238;8.092;2023-04-10T01:55:00;100000.13;;;8.92;58.06
68859;BME280;55864;49.238;8.092;2023-04-10T01:57:09;99992.38;;;8.91;57.80
68859;BME280;55864;49.238;8.092;2023-04-10T01:59:23;99995.94;;;8.90;59.17
68859;BME280;55864;49.238;8.092;2023-04-10T02:01:23;99989.91;;;8.89;57.98
68859;BME280;55864;49.238;8.092;2023-04-10T02:03:25;99987.16;;;8.91;59.32
68859;BME280;55864;49.238;8.092;2023-04-10T02:05:31;99990.25;;;8.85;59.93
68859;BME280;55864;49.238;8.092;2023-04-10T02:07:43;99986.91;;;8.83;59.25
68859;BME280;55864;49.238;8.092;2023-04-10T02:09:49;99992.00;;;8.84;59.70
68859;BME280;55864;49.238;8.092;2023-04-10T02:11:54;99988.34;;;8.87;58.45
68859;BME280;55864;49.238;8.092;2023-04-10T02:13:59;99988.59;;;8.84;59.28
68859;BME280;55864;49.238;8.092;2023-04-10T02:16:03;99985.13;;;8.83;59.03
68859;BME280;55864;49.238;8.092;2023-04-10T02:18:09;99990.00;;;8.77;58.86
68859;BME280;55864;49.238;8.092;2023-04-10T02:20:11;99994.16;;;8.79;59.19
68859;BME280;55864;49.238;8.092;2023-04-10T02:22:14;99995.47;;;8.74;58.75
68859;BME280;55864;49.238;8.092;2023-04-10T02:24:15;99986.91;;;8.72;59.88
68859;BME280;55864;49.238;8.092;2023-04-10T02:26:15;99987.75;;;8.72;59.55
68859;BME280;55864;49.238;8.092;2023-04-10T02:28:16;99988.47;;;8.74;59.75
68859;BME280;55864;49.238;8.092;2023-04-10T02:30:16;99986.06;;;8.71;59.16
68859;BME280;55864;49.238;8.092;2023-04-10T02:32:18;99989.63;;;8.70;60.06
68859;BME280;55864;49.238;8.092;2023-04-10T02:34:20;99989.28;;;8.75;60.05
68859;BME280;55864;49.238;8.092;2023-04-10T02:36:21;99982.38;;;8.74;59.40
68859;BME280;55864;49.238;8.092;2023-04-10T02:38:22;99981.66;;;8.72;59.11
68859;BME280;55864;49.238;8.092;2023-04-10T02:40:23;99985.34;;;8.69;59.82
68859;BME280;55864;49.238;8.092;2023-04-10T02:42:50;99979.63;;;8.64;59.94
68859;BME280;55864;49.238;8.092;2023-04-10T02:44:50;99985.94;;;8.62;59.59
68859;BME280;55864;49.238;8.092;2023-04-10T02:46:51;99987.69;;;8.61;59.90
68859;BME280;55864;49.238;8.092;2023-04-10T02:48:52;99982.38;;;8.63;60.23
68859;BME280;55864;49.238;8.092;2023-04-10T02:50:55;99982.13;;;8.66;60.33
68859;BME280;55864;49.238;8.092;2023-04-10T02:52:57;99977.84;;;8.65;59.52
68859;BME280;55864;49.238;8.092;2023-04-10T02:54:58;99975.44;;;8.62;59.76
68859;BME280;55864;49.238;8.092;2023-04-10T02:57:02;99974.28;;;8.66;59.28
68859;BME280;55864;49.238;8.092;2023-04-10T02:59:03;99980.94;;;8.70;59.67
68859;BME280;55864;49.238;8.092;2023-04-10T03:01:05;99979.16;;;8.70;59.45
68859;BME280;55864;49.238;8.092;2023-04-10T03:03:12;99983.09;;;8.65;59.57
68859;BME280;55864;49.238;8.092;2023-04-10T03:05:18;99970.94;;;8.64;59.97
68859;BME280;55864;49.238;8.092;2023-04-10T03:07:20;99966.41;;;8.66;59.30
68859;BME280;55864;49.238;8.092;2023-04-10T03:09:23;99969.03;;;8.66;60.55
68859;BME280;55864;49.238;8.092;2023-04-10T03:11:24;99962.13;;;8.65;60.08
68859;BME280;55864;49.238;8.092;2023-04-10T03:13:24;99962.59;;;8.59;59.21
68859;BME280;55864;49.238;8.092;2023-04-10T03:15:25;99956.28;;;8.61;60.38
68859;BME280;55864;49.238;8.092;2023-04-10T03:17:25;99965.81;;;8.62;59.99
68859;BME280;55864;49.238;8.092;2023-04-10T03:19:27;99959.97;;;8.59;60.02
68859;BME280;55864;49.238;8.092;2023-04-10T03:21:27;99952.00;;;8.60;59.99
68859;BME280;55864;49.238;8.092;2023-04-10T03:23:28;99954.03;;;8.57;59.36
68859;BME280;55864;49.238;8.092;2023-04-10T03:25:30;99953.91;;;8.58;60.33
68859;BME280;55864;49.238;8.092;2023-04-10T03:27:33;99951.03;;;8.61;59.45
68859;BME280;55864;49.238;8.092;2023-04-10T03:29:33;99947.75;;;8.59;60.37
68859;BME280;55864;49.238;8.092;2023-04-10T03:31:34;99938.78;;;8.62;60.00
68859;BME280;55864;49.238;8.092;2023-04-10T03:33:35;99946.91;;;8.59;59.26
68859;BME280;55864;49.238;8.092;2023-04-10T03:35:35;99941.53;;;8.60;59.91
68859;BME280;55864;49.238;8.092;2023-04-10T03:37:36;99940.69;;;8.60;60.42
68859;BME280;55864;49.238;8.092;2023-04-10T03:39:37;99939.75;;;8.61;60.43
68859;BME280;55864;49.238;8.092;2023-04-10T03:41:39;99938.19;;;8.58;60.32
68859;BME280;55864;49.238;8.092;2023-04-10T03:43:39;99940.81;;;8.58;60.12
68859;BME280;55864;49.238;8.092;2023-04-10T03:45:41;99934.03;;;8.55;60.21
68859;BME280;55864;49.238;8.092;2023-04-10T03:47:42;99927.84;;;8.57;60.61
68859;BME280;55864;49.238;8.092;2023-04-10T03:49:44;99935.69;;;8.57;60.19
68859;BME280;55864;49.238;8.092;2023-04-10T03:51:45;99927.84;;;8.57;60.18
68859;BME280;55864;49.238;8.092;2023-04-10T03:53:45;99927.13;;;8.54;59.77
68859;BME280;55864;49.238;8.092;2023-04-10T03:55:49;99925.56;;;8.52;60.37
68859;BME280;55864;49.238;8.092;2023-04-10T03:57:51;99929.03;;;8.52;59.86
68859;BME280;55864;49.238;8.092;2023-04-10T03:59:54;99930.00;;;8.51;60.90
68859;BME280;55864;49.238;8.092;2023-04-10T04:01:55;99927.47;;;8.50;60.11
68859;BME280;55864;49.238;8.092;2023-04-10T04:03:55;99929.50;;;8.46;60.76
68859;BME280;55864;49.238;8.092;2023-04-10T04:06:22;99933.06;;;8.45;60.32
68859;BME280;55864;49.238;8.092;2023-04-10T04:08:49;99933.41;;;8.41;60.42
68859;BME280;55864;49.238;8.092;2023-04-10T04:11:10;99926.41;;;8.41;60.44
68859;BME280;55864;49.238;8.092;2023-04-10T04:13:23;99929.16;;;8.40;60.74
68859;BME280;55864;49.238;8.092;2023-04-10T04:15:37;99925.72;;;8.16;61.09
68859;BME280;55864;49.238;8.092;2023-04-10T04:17:50;99923.13;;;7.81;61.69
68859;BME280;55864;49.238;8.092;2023-04-10T04:20:12;99926.47;;;7.59;62.50
68859;BME280;55864;49.238;8.092;2023-04-10T04:22:16;99926.44;;;7.48;62.65
68859;BME280;55864;49.238;8.092;2023-04-10T04:24:37;99931.19;;;7.31;62.20
68859;BME280;55864;49.238;8.092;2023-04-10T04:26:48;99925.84;;;7.09;62.44
68859;BME280;55864;49.238;8.092;2023-04-10T04:29:08;99928.44;;;7.45;63.20
68859;BME280;55864;49.238;8.092;2023-04-10T04:31:38;99938.53;;;7.73;62.35
68859;BME280;55864;49.238;8.092;2023-04-10T04:33:47;99943.94;;;7.83;62.09
68859;BME280;55864;49.238;8.092;2023-04-10T04:36:09;99942.16;;;7.83;62.16
68859;BME280;55864;49.238;8.092;2023-04-10T04:38:36;99952.50;;;7.85;62.35
68859;BME280;55864;49.238;8.092;2023-04-10T04:41:03;99946.00;;;7.67;62.33
68859;BME280;55864;49.238;8.092;2023-04-10T04:43:16;99944.91;;;7.58;62.89
68859;BME280;55864;49.238;8.092;2023-04-10T04:45:37;99952.44;;;7.50;62.93
68859;BME280;55864;49.238;8.092;2023-04-10T04:47:58;99953.50;;;7.24;63.82
68859;BME280;55864;49.238;8.092;2023-04-10T04:50:18;99954.47;;;7.10;65.02
68859;BME280;55864;49.238;8.092;2023-04-10T04:52:37;99954.28;;;7.01;65.91
68859;BME280;55864;49.238;8.092;2023-04-10T04:54:51;99958.25;;;6.94;66.54
68859;BME280;55864;49.238;8.092;2023-04-10T04:57:09;99959.31;;;6.79;66.80
68859;BME280;55864;49.238;8.092;2023-04-10T04:59:42;99958.16;;;6.70;66.79
68859;BME280;55864;49.238;8.092;2023-04-10T05:01:57;99963.81;;;6.77;66.93
68859;BME280;55864;49.238;8.092;2023-04-10T05:04:09;99963.31;;;6.72;66.43
68859;BME280;55864;49.238;8.092;2023-04-10T05:06:28;99957.63;;;6.78;66.68
68859;BME280;55864;49.238;8.092;2023-04-10T05:08:55;99951.19;;;6.71;67.14
68859;BME280;55864;49.238;8.092;2023-04-10T05:11:03;99946.06;;;6.69;67.05
68859;BME280;55864;49.238;8.092;2023-04-10T05:13:13;99945.97;;;6.58;67.37
68859;BME280;55864;49.238;8.092;2023-04-10T05:15:21;99945.66;;;6.50;67.48
68859;BME280;55864;49.238;8.092;2023-04-10T05:17:40;99952.75;;;6.35;67.98
68859;BME280;55864;49.238;8.092;2023-04-10T05:20:08;99950.16;;;6.35;68.55
68859;BME280;55864;49.238;8.092;2023-04-10T05:22:35;99947.13;;;6.41;68.93
68859;BME280;55864;49.238;8.092;2023-04-10T05:24:54;99947.25;;;6.52;68.21
68859;BME280;55864;49.238;8.092;2023-04-10T05:27:13;99952.31;;;6.29;69.24
68859;BME280;55864;49.238;8.092;2023-04-10T05:29:19;99949.94;;;6.38;69.11
68859;BME280;55864;49.238;8.092;2023-04-10T05:31:46;99952.88;;;6.46;68.66
68859;BME280;55864;49.238;8.092;2023-04-10T05:33:56;99958.50;;;6.53;68.87
68859;BME280;55864;49.238;8.092;2023-04-10T05:36:17;99961.00;;;6.42;69.35
68859;BME280;55864;49.238;8.092;2023-04-10T05:38:32;99961.72;;;6.31;69.35
68859;BME280;55864;49.238;8.092;2023-04-10T05:40:52;99961.63;;;6.45;68.77
68859;BME280;55864;49.238;8.092;2023-04-10T05:43:11;99966.66;;;6.48;68.56
68859;BME280;55864;49.238;8.092;2023-04-10T05:45:31;99962.56;;;6.70;67.69
68859;BME280;55864;49.238;8.092;2023-04-10T05:47:31;99972.47;;;6.64;68.10
68859;BME280;55864;49.238;8.092;2023-04-10T05:49:55;99960.88;;;6.68;67.74
68859;BME280;55864;49.238;8.092;2023-04-10T05:52:14;99962.66;;;6.81;67.15
68859;BME280;55864;49.238;8.092;2023-04-10T05:54:47;99965.19;;;6.70;67.42
68859;BME280;55864;49.238;8.092;2023-04-10T05:57:05;99955.91;;;6.65;67.58
68859;BME280;55864;49.238;8.092;2023-04-10T05:59:35;99963.09;;;6.75;66.78
68859;BME280;55864;49.238;8.092;2023-04-10T06:01:58;99969.78;;;6.79;66.98
68859;BME280;55864;49.238;8.092;2023-04-10T06:03:59;99962.47;;;6.71;67.85
68859;BME280;55864;49.238;8.092;2023-04-10T06:06:01;99965.38;;;6.66;68.05
68859;BME280;55864;49.238;8.092;2023-04-10T06:08:03;99959.63;;;6.87;67.67
68859;BME280;55864;49.238;8.092;2023-04-10T06:10:04;99965.78;;;6.86;67.26
68859;BME280;55864;49.238;8.092;2023-04-10T06:12:09;99961.50;;;6.72;68.09
68859;BME280;55864;49.238;8.092;2023-04-10T06:14:11;99964.66;;;6.64;68.82
68859;BME280;55864;49.238;8.092;2023-04-10T06:16:16;99961.00;;;6.67;69.34
68859;BME280;55864;49.238;8.092;2023-04-10T06:18:18;99958.09;;;6.72;69.06
68859;BME280;55864;49.238;8.092;2023-04-10T06:20:19;99964.03;;;6.74;68.72
68859;BME280;55864;49.238;8.092;2023-04-10T06:22:21;99958.59;;;6.77;68.80
68859;BME280;55864;49.238;8.092;2023-04-10T06:24:21;99954.53;;;6.73;69.48
68859;BME280;55864;49.238;8.092;2023-04-10T06:26:23;99954.59;;;6.84;69.14
68859;BME280;55864;49.238;8.092;2023-04-10T06:28:24;99961.63;;;6.83;69.32
68859;BME280;55864;49.238;8.092;2023-04-10T06:30:28;99951.25;;;6.82;69.29
68859;BME280;55864;49.238;8.092;2023-04-10T06:32:29;99951.88;;;6.85;68.86
68859;BME280;55864;49.238;8.092;2023-04-10T06:34:30;99947.38;;;6.87;68.88
68859;BME280;55864;49.238;8.092;2023-04-10T06:36:34;99941.97;;;6.90;68.80
68859;BME280;55864;49.238;8.092;2023-04-10T06:38:39;99945.50;;;7.02;68.56
68859;BME280;55864;49.238;8.092;2023-04-10T06:40:40;99948.31;;;7.11;67.88
68859;BME280;55864;49.238;8.092;2023-04-10T06:42:40;99941.59;;;7.20;67.49
68859;BME280;55864;49.238;8.092;2023-04-10T06:44:46;99939.75;;;7.33;66.90
68859;BME280;55864;49.238;8.092;2023-04-10T06:46:47;99937.56;;;7.39;66.01
68859;BME280;55864;49.238;8.092;2023-04-10T06:48:47;99934.53;;;7.33;65.18
68859;BME280;55864;49.238;8.092;2023-04-10T06:50:48;99936.72;;;7.39;65.37
68859;BME280;55864;49.238;8.092;2023-04-10T06:52:49;99933.16;;;7.63;63.96
68859;BME280;55864;49.238;8.092;2023-04-10T06:54:51;99930.25;;;7.55;64.26
68859;BME280;55864;49.238;8.092;2023-04-10T06:56:51;99933.16;;;7.63;64.69
68859;BME280;55864;49.238;8.092;2023-04-10T06:58:52;99939.09;;;7.66;64.00
68859;BME280;55864;49.238;8.092;2023-04-10T07:00:52;99935.94;;;7.73;63.44
68859;BME280;55864;49.238;8.092;2023-04-10T07:02:53;99936.25;;;7.69;64.41
68859;BME280;55864;49.238;8.092;2023-04-10T07:04:53;99944.44;;;7.64;63.94
68859;BME280;55864;49.238;8.092;2023-04-10T07:06:54;99944.56;;;7.63;64.14
68859;BME280;55864;49.238;8.092;2023-04-10T07:08:54;99941.28;;;7.72;64.04
68859;BME280;55864;49.238;8.092;2023-04-10T07:10:56;99932.91;;;7.67;64.32
68859;BME280;55864;49.238;8.092;2023-04-10T07:12:57;99939.00;;;7.67;64.23
68859;BME280;55864;49.238;8.092;2023-04-10T07:14:58;99938.88;;;7.69;64.08
68859;BME280;55864;49.238;8.092;2023-04-10T07:16:58;99936.22;;;7.81;64.28
68859;BME280;55864;49.238;8.092;2023-04-10T07:18:59;99936.72;;;7.97;63.79
68859;BME280;55864;49.238;8.092;2023-04-10T07:20:59;99935.41;;;7.92;64.16
68859;BME280;55864;49.238;8.092;2023-04-10T07:23:00;99935.44;;;8.03;62.65
68859;BME280;55864;49.238;8.092;2023-04-10T07:25:01;99932.25;;;8.10;62.80
68859;BME280;55864;49.238;8.092;2023-04-10T07:27:03;99933.56;;;8.16;62.11
68859;BME280;55864;49.238;8.092;2023-04-10T07:29:03;99931.06;;;8.14;62.53
68859;BME280;55864;49.238;8.092;2023-04-10T07:31:04;99923.47;;;8.22;62.72
68859;BME280;55864;49.238;8.092;2023-04-10T07:33:05;99921.63;;;8.35;62.31
68859;BME280;55864;49.238;8.092;2023-04-10T07:35:06;99921.63;;;8.35;62.07
68859;BME280;55864;49.238;8.092;2023-04-10T07:37:07;99927.91;;;8.33;62.69
68859;BME280;55864;49.238;8.092;2023-04-10T07:39:08;99924.63;;;8.42;62.21
68859;BME280;55864;49.238;8.092;2023-04-10T07:41:08;99917.25;;;8.36;62.00
68859;BME280;55864;49.238;8.092;2023-04-10T07:43:10;99929.97;;;8.40;62.80
68859;BME280;55864;49.238;8.092;2023-04-10T07:45:11;99924.97;;;8.48;61.49
68859;BME280;55864;49.238;8.092;2023-04-10T07:47:11;99929.63;;;8.56;60.97
68859;BME280;55864;49.238;8.092;2023-04-10T07:49:12;99924.16;;;8.59;61.00
68859;BME280;55864;49.238;8.092;2023-04-10T07:51:13;99922.84;;;8.65;61.40
68859;BME280;55864;49.238;8.092;2023-04-10T07:53:13;99923.91;;;8.73;60.48
68859;BME280;55864;49.238;8.092;2023-04-10T07:55:14;99920.81;;;8.79;60.26
68859;BME280;55864;49.238;8.092;2023-04-10T07:57:14;99919.25;;;8.88;60.02
68859;BME280;55864;49.238;8.092;2023-04-10T07:59:16;99919.63;;;8.94;59.69
68859;BME280;55864;49.238;8.092;2023-04-10T08:01:17;99919.16;;;9.00;59.39
68859;BME280;55864;49.238;8.092;2023-04-10T08:03:17;99922.34;;;9.04;58.92
68859;BME280;55864;49.238;8.092;2023-04-10T08:05:18;99921.16;;;9.08;60.02
68859;BME280;55864;49.238;8.092;2023-04-10T08:07:20;99916.84;;;9.18;60.34
68859;BME280;55864;49.238;8.092;2023-04-10T08:09:21;99916.34;;;9.24;59.72
68859;BME280;55864;49.238;8.092;2023-04-10T08:11:23;99914.22;;;9.29;59.18
68859;BME280;55864;49.238;8.092;2023-04-10T08:13:24;99910.84;;;9.38;59.61
68859;BME280;55864;49.238;8.092;2023-04-10T08:15:26;99915.59;;;9.44;58.89
68859;BME280;55864;49.238;8.092;2023-04-10T08:17:27;99911.78;;;9.48;58.93
68859;BME280;55864;49.238;8.092;2023-04-10T08:19:27;99914.84;;;9.53;58.20
68859;BME280;55864;49.238;8.092;2023-04-10T08:21:29;99918.91;;;9.57;58.72
68859;BME280;55864;49.238;8.092;2023-04-10T08:23:30;99915.66;;;9.65;58.22
68859;BME280;55864;49.238;8.092;2023-04-10T08:25:30;99916.53;;;9.75;59.08
68859;BME280;55864;49.238;8.092;2023-04-10T08:27:31;99915.59;;;9.76;57.66
68859;BME280;55864;49.238;8.092;2023-04-10T08:29:31;99921.16;;;9.82;58.25
68859;BME280;55864;49.238;8.092;2023-04-10T08:31:33;99917.34;;;9.86;58.89
68859;BME280;55864;49.238;8.092;2023-04-10T08:33:34;99914.72;;;9.86;59.01
68859;BME280;55864;49.238;8.092;2023-04-10T08:35:34;99916.34;;;9.98;58.51
68859;BME280;55864;49.238;8.092;2023-04-10T08:37:35;99914.28;;;10.02;58.93
68859;BME280;55864;49.238;8.092;2023-04-10T08:39:35;99916.53;;;10.06;58.34
68859;BME280;55864;49.238;8.092;2023-04-10T08:41:36;99911.25;;;10.17;58.19
68859;BME280;55864;49.238;8.092;2023-04-10T08:43:39;99906.72;;;10.19;57.24
68859;BME280;55864;49.238;8.092;2023-04-10T08:45:40;99904.50;;;10.24;56.77
68859;BME280;55864;49.238;8.092;2023-04-10T08:47:43;99898.81;;;10.19;57.14
68859;BME280;55864;49.238;8.092;2023-04-10T08:49:48;99900.66;;;10.28;57.96
68859;BME280;55864;49.238;8.092;2023-04-10T08:51:54;99896.38;;;10.48;58.01
68859;BME280;55864;49.238;8.092;2023-04-10T08:53:57;99884.75;;;10.51;58.01
68859;BME280;55864;49.238;8.092;2023-04-10T08:56:02;99894.72;;;10.57;58.60
68859;BME280;55864;49.238;8.092;2023-04-10T08:58:03;99881.91;;;10.63;57.64
68859;BME280;55864;49.238;8.092;2023-04-10T09:00:05;99888.53;;;10.58;57.56
68859;BME280;55864;49.238;8.092;2023-04-10T09:02:05;99894.34;;;10.61;57.03
68859;BME280;55864;49.238;8.092;2023-04-10T09:04:10;99879.34;;;10.73;57.44
68859;BME280;55864;49.238;8.092;2023-04-10T09:06:10;99878.78;;;10.79;57.55
68859;BME280;55864;49.238;8.092;2023-04-10T09:08:13;99872.16;;;10.75;56.89
68859;BME280;55864;49.238;8.092;2023-04-10T09:10:14;99876.84;;;10.81;56.78
68859;BME280;55864;49.238;8.092;2023-04-10T09:12:15;99869.97;;;10.89;56.93
68859;BME280;55864;49.238;8.092;2023-04-10T09:14:19;99869.19;;;11.08;56.67
68859;BME280;55864;49.238;8.092;2023-04-10T09:16:27;99862.16;;;11.18;56.71
68859;BME280;55864;49.238;8.092;2023-04-10T09:18:42;99866.19;;;11.22;56.20
68859;BME280;55864;49.238;8.092;2023-04-10T09:20:45;99859.25;;;11.30;56.62
68859;BME280;55864;49.238;8.092;2023-04-10T09:22:45;99860.78;;;11.43;57.80
68859;BME280;55864;49.238;8.092;2023-04-10T09:24:46;99860.38;;;11.47;55.48
68859;BME280;55864;49.238;8.092;2023-04-10T09:26:46;99850.84;;;11.56;55.95
68859;BME280;55864;49.238;8.092;2023-04-10T09:28:55;99851.94;;;11.53;54.94
68859;BME280;55864;49.238;8.092;2023-04-10T09:30:56;99841.16;;;11.56;55.08
68859;BME280;55864;49.238;8.092;2023-04-10T09:32:57;99846.13;;;11.59;55.51
68859;BME280;55864;49.238;8.092;2023-04-10T09:34:57;99839.19;;;11.68;54.68
68859;BME280;55864;49.238;8.092;2023-04-10T09:37:00;99842.13;;;11.74;55.09
68859;BME280;55864;49.238;8.092;2023-04-10T09:39:00;99837.13;;;11.81;54.62
68859;BME280;55864;49.238;8.092;2023-04-10T09:41:05;99835.88;;;11.85;54.10
68859;BME280;55864;49.238;8.092;2023-04-10T09:43:16;99836.28;;;11.90;53.54
68859;BME280;55864;49.238;8.092;2023-04-10T09:45:17;99828.38;;;11.99;54.27
68859;BME280;55864;49.238;8.092;2023-04-10T09:47:19;99824.59;;;12.02;53.32
68859;BME280;55864;49.238;8.092;2023-04-10T09:49:19;99826.69;;;12.08;53.53
68859;BME280;55864;49.238;8.092;2023-04-10T09:51:27;99820.69;;;12.15;53.39
68859;BME280;55864;49.238;8.092;2023-04-10T09:53:29;99822.50;;;12.15;53.34
68859;BME280;55864;49.238;8.092;2023-04-10T09:55:30;99815.41;;;12.25;53.99
68859;BME280;55864;49.238;8.092;2023-04-10T09:57:31;99809.41;;;12.32;54.44
68859;BME280;55864;49.238;8.092;2023-04-10T09:59:35;99813.41;;;12.37;52.54
68859;BME280;55864;49.238;8.092;2023-04-10T10:01:38;99811.16;;;12.42;51.85
68859;BME280;55864;49.238;8.092;2023-04-10T10:03:39;99806.88;;;12.41;51.32
68859;BME280;55864;49.238;8.092;2023-04-10T10:05:41;99812.66;;;12.54;50.90
68859;BME280;55864;49.238;8.092;2023-04-10T10:07:43;99805.44;;;12.56;50.20
68859;BME280;55864;49.238;8.092;2023-04-10T10:09:47;99803.59;;;12.66;50.91
68859;BME280;55864;49.238;8.092;2023-04-10T10:11:49;99797.13;;;12.78;49.34
68859;BME280;55864;49.238;8.092;2023-04-10T10:13:51;99799.31;;;12.82;50.06
68859;BME280;55864;49.238;8.092;2023-04-10T10:15:57;99800.63;;;12.96;49.80
68859;BME280;55864;49.238;8.092;2023-04-10T10:18:06;99798.69;;;12.98;47.92
68859;BME280;55864;49.238;8.092;2023-04-10T10:20:12;99790.84;;;13.06;48.11
68859;BME280;55864;49.238;8.092;2023-04-10T10:22:13;99782.19;;;13.13;49.17
68859;BME280;55864;49.238;8.092;2023-04-10T10:24:14;99784.56;;;13.34;48.26
68859;BME280;55864;49.238;8.092;2023-04-10T10:26:18;99774.00;;;13.34;47.54
68859;BME280;55864;49.238;8.092;2023-04-10T10:28:19;99776.91;;;13.31;48.10
68859;BME280;55864;49.238;8.092;2023-04-10T10:30:20;99779.31;;;13.42;47.70
68859;BME280;55864;49.238;8.092;2023-04-10T10:32:22;99775.03;;;13.41;47.66
68859;BME280;55864;49.238;8.092;2023-04-10T10:34:23;99771.13;;;13.45;46.74
68859;BME280;55864;49.238;8.092;2023-04-10T10:36:24;99763.19;;;13.45;46.83
68859;BME280;55864;49.238;8.092;2023-04-10T10:38:25;99767.03;;;13.51;47.46
68859;BME280;55864;49.238;8.092;2023-04-10T10:40:28;99757.25;;;13.69;45.88
68859;BME280;55864;49.238;8.092;2023-04-10T10:42:37;99762.69;;;13.67;46.78
68859;BME280;55864;49.238;8.092;2023-04-10T10:44:43;99760.41;;;13.72;45.69
68859;BME280;55864;49.238;8.092;2023-04-10T10:46:49;99758.59;;;13.73;44.34
68859;BME280;55864;49.238;8.092;2023-04-10T10:48:55;99755.81;;;13.74;44.53
68859;BME280;55864;49.238;8.092;2023-04-10T10:50:56;99751.44;;;13.83;45.82
68859;BME280;55864;49.238;8.092;2023-04-10T10:52:57;99748.84;;;13.91;45.43
68859;BME280;55864;49.238;8.092;2023-04-10T10:54:58;99754.81;;;14.01;45.63
68859;BME280;55864;49.238;8.092;2023-04-10T10:56:59;99750.72;;;14.06;45.07
68859;BME280;55864;49.238;8.092;2023-04-10T10:59:01;99754.25;;;14.15;44.97
68859;BME280;55864;49.238;8.092;2023-04-10T11:01:11;99741.88;;;14.24;44.72
68859;BME280;55864;49.238;8.092;2023-04-10T11:03:27;99743.59;;;14.33;43.95
68859;BME280;55864;49.238;8.092;2023-04-10T11:05:48;99730.13;;;14.52;43.63
68859;BME280;55864;49.238;8.092;2023-04-10T11:08:07;99729.19;;;14.61;41.87
68859;BME280;55864;49.238;8.092;2023-04-10T11:10:08;99726.75;;;14.75;41.01